EDVK

Kassel-Calden Airport

Kassel, Germany
METAR EDVK 191520Z 24009KT 210V280 CAVOK 29/10 Q1018
Observed Flight Rules
Aug-19 @ 15:20 UTC (19 minutes ago) Visual Flight Rules
Wind Visibility Clouds
240° at 9 knots 10,000+ meters
  • Clear skies
Temperatures Readings
Current 29°C / 84°F
Dewpoint 10°C / 50°F
Humidity 31%
Altimeter 30.06" Hg
Pressure 1018 hPa
Elevation 285
METAR EDVK 191520Z 24009KT 210V280 CAVOK 29/10 Q1018
Observed Flight Rules
Aug-19 @ 15:20 UTC
(19 minutes ago)
VFR
Wind Visibility
240° at 9 knots 10,000+ meters
Clouds
  • Clear skies
Temperature Dewpoint
29°C / 84°F 10°C / 50°F
Humidity Altimeter Pressure
31% 30.06" Hg 1018 hPa